createdAt,value
2018-12-04T00:01:33.155Z,10.30
2018-12-04T00:04:07.283Z,10.30
2018-12-04T00:06:36.569Z,10.30
2018-12-04T00:09:10.302Z,10.30
2018-12-04T00:11:41.522Z,10.40
2018-12-04T00:14:12.525Z,10.40
2018-12-04T00:16:43.352Z,10.30
2018-12-04T00:19:14.153Z,10.40
2018-12-04T00:21:45.245Z,10.40
2018-12-04T00:24:16.079Z,10.40
2018-12-04T00:26:46.636Z,10.30
2018-12-04T00:29:17.325Z,10.30
2018-12-04T00:31:50.686Z,10.30
2018-12-04T00:34:19.763Z,10.30
2018-12-04T00:36:50.518Z,10.20
2018-12-04T00:39:21.300Z,10.20
2018-12-04T00:41:50.453Z,10.20
2018-12-04T00:44:18.886Z,10.00
2018-12-04T00:46:48.000Z,9.90
2018-12-04T00:49:18.401Z,9.80
2018-12-04T00:51:49.436Z,9.70
2018-12-04T00:54:18.836Z,9.60
2018-12-04T00:56:49.807Z,9.70
2018-12-04T00:59:25.539Z,9.60
2018-12-04T01:01:54.784Z,9.60
2018-12-04T01:04:28.645Z,9.60
2018-12-04T01:06:57.922Z,9.60
2018-12-04T01:09:26.956Z,9.50
2018-12-04T01:11:57.846Z,9.50
2018-12-04T01:14:26.900Z,9.40
2018-12-04T01:16:57.602Z,9.40
2018-12-04T01:19:28.531Z,9.30
2018-12-04T01:21:57.599Z,9.30
2018-12-04T01:24:31.203Z,9.30
2018-12-04T01:27:02.260Z,9.20
2018-12-04T01:29:35.921Z,9.30
2018-12-04T01:32:11.579Z,9.20
2018-12-04T01:34:42.033Z,9.20
2018-12-04T01:37:16.048Z,9.10
2018-12-04T01:39:49.167Z,9.00
2018-12-04T01:42:19.699Z,9.00
2018-12-04T01:44:48.854Z,9.00
2018-12-04T01:47:22.575Z,8.90
2018-12-04T01:49:53.048Z,8.90
2018-12-04T01:52:24.299Z,8.70
2018-12-04T01:54:53.633Z,8.50
2018-12-04T01:57:23.972Z,8.30
2018-12-04T02:00:01.891Z,8.20
2018-12-04T02:02:32.372Z,8.10
2018-12-04T02:05:06.231Z,8.00
2018-12-04T02:07:36.687Z,7.90
2018-12-04T02:10:10.646Z,7.90
2018-12-04T02:12:39.728Z,7.80
2018-12-04T02:15:13.737Z,7.80
2018-12-04T02:17:44.653Z,7.80
2018-12-04T02:20:15.006Z,7.80
2018-12-04T02:22:48.252Z,7.70
2018-12-04T02:25:19.304Z,7.70
2018-12-04T02:28:00.342Z,7.70
2018-12-04T02:30:32.535Z,7.70
2018-12-04T02:33:03.628Z,7.70
2018-12-04T02:35:32.670Z,7.70
2018-12-04T02:38:03.668Z,7.70
2018-12-04T02:40:32.419Z,7.60
2018-12-04T02:43:03.682Z,7.60
2018-12-04T02:45:34.620Z,7.60
2018-12-04T02:48:05.795Z,7.60
2018-12-04T02:50:34.733Z,7.50
2018-12-04T02:53:05.922Z,7.50
2018-12-04T02:55:34.974Z,7.50
2018-12-04T02:58:06.097Z,7.40
2018-12-04T03:00:37.396Z,7.40
2018-12-04T03:03:06.675Z,7.40
2018-12-04T03:05:37.843Z,7.40
2018-12-04T03:08:08.903Z,7.30
2018-12-04T03:10:37.864Z,7.40
2018-12-04T03:13:06.955Z,7.30
2018-12-04T03:15:36.232Z,7.30
2018-12-04T03:18:07.483Z,7.30
2018-12-04T03:20:38.841Z,7.30
2018-12-04T03:23:12.731Z,7.30
2018-12-04T03:25:41.872Z,7.30
2018-12-04T03:28:12.831Z,7.30
2018-12-04T03:30:42.053Z,7.30
2018-12-04T03:33:16.725Z,7.30
2018-12-04T03:35:53.754Z,7.30
2018-12-04T03:38:24.185Z,7.30
2018-12-04T03:40:55.048Z,7.30
2018-12-04T03:43:28.571Z,7.30
2018-12-04T03:45:57.432Z,7.30
2018-12-04T03:48:26.197Z,7.30
2018-12-04T03:50:56.900Z,7.30
2018-12-04T03:53:27.656Z,7.30
2018-12-04T03:55:56.408Z,7.20
2018-12-04T03:58:27.073Z,7.20
2018-12-04T04:00:56.212Z,7.30
2018-12-04T04:03:27.266Z,7.30
2018-12-04T04:05:56.015Z,7.30
2018-12-04T04:08:26.923Z,7.20
2018-12-04T04:10:57.552Z,7.30
2018-12-04T04:13:26.403Z,7.30
2018-12-04T04:15:57.288Z,7.20
2018-12-04T04:18:26.006Z,7.20
2018-12-04T04:20:56.994Z,7.10
2018-12-04T04:23:25.648Z,7.10
2018-12-04T04:25:56.517Z,7.10
2018-12-04T04:28:27.364Z,7.10
2018-12-04T04:31:00.972Z,7.10
2018-12-04T04:33:32.231Z,7.00
2018-12-04T04:36:01.287Z,7.00
2018-12-04T04:38:32.306Z,7.00
2018-12-04T04:41:03.518Z,7.00
2018-12-04T04:43:34.668Z,7.00
2018-12-04T04:46:05.112Z,6.90
2018-12-04T04:48:36.456Z,6.90
2018-12-04T04:51:07.392Z,6.80
2018-12-04T04:53:41.128Z,6.90
2018-12-04T04:56:11.984Z,6.90
2018-12-04T04:58:42.827Z,6.90
2018-12-04T05:01:13.548Z,6.80
2018-12-04T05:03:44.373Z,6.80
2018-12-04T05:06:15.706Z,6.90
2018-12-04T05:08:49.104Z,6.90
2018-12-04T05:11:22.970Z,6.90
2018-12-04T05:13:54.196Z,6.80
2018-12-04T05:16:27.686Z,6.80
2018-12-04T05:18:56.638Z,6.80
2018-12-04T05:21:32.080Z,6.80
2018-12-04T05:24:06.265Z,6.90
2018-12-04T05:26:36.732Z,6.90
2018-12-04T05:29:07.590Z,6.80
2018-12-04T05:31:38.794Z,6.80
2018-12-04T05:34:12.021Z,6.80
2018-12-04T05:36:42.956Z,6.70
2018-12-04T05:39:16.718Z,6.80
2018-12-04T05:41:50.395Z,6.80
2018-12-04T05:44:26.186Z,6.80
2018-12-04T05:46:59.847Z,6.80
2018-12-04T05:49:40.213Z,6.70
2018-12-04T05:52:11.382Z,6.70
2018-12-04T05:54:53.833Z,6.70
2018-12-04T05:57:30.845Z,6.70
2018-12-04T06:00:06.063Z,6.70
2018-12-04T06:02:35.334Z,6.70
2018-12-04T06:05:04.393Z,6.70
2018-12-04T06:10:10.146Z,6.70
2018-12-04T06:12:47.508Z,6.70
2018-12-04T06:15:28.090Z,6.70
2018-12-04T06:17:59.390Z,6.70
2018-12-04T06:20:30.247Z,6.70
2018-12-04T06:23:00.651Z,6.80
2018-12-04T06:25:40.679Z,6.80
2018-12-04T06:28:14.758Z,6.70
2018-12-04T06:30:46.325Z,6.70
2018-12-04T06:33:15.568Z,6.60
2018-12-04T06:35:44.424Z,6.60
2018-12-04T06:38:21.963Z,6.60
2018-12-04T06:40:55.630Z,6.50
2018-12-04T06:46:28.916Z,6.60
2018-12-04T06:49:03.095Z,6.60
2018-12-04T06:51:34.358Z,6.60
2018-12-04T06:54:08.153Z,6.60
2018-12-04T06:59:48.147Z,6.60
2018-12-04T07:02:22.731Z,6.60
2018-12-04T07:04:53.594Z,6.60
2018-12-04T07:12:59.416Z,6.60
2018-12-04T07:15:31.080Z,6.60
2018-12-04T07:21:04.700Z,6.50
2018-12-04T07:23:42.626Z,6.50
2018-12-04T07:26:19.910Z,6.50
2018-12-04T07:28:51.091Z,6.60
2018-12-04T07:31:24.974Z,6.60
2018-12-04T07:33:59.185Z,6.60
2018-12-04T07:36:31.539Z,6.60
2018-12-04T07:39:06.408Z,6.60
2018-12-04T07:41:53.555Z,6.70
2018-12-04T07:44:24.074Z,6.70
2018-12-04T07:47:10.794Z,6.70
2018-12-04T07:49:41.499Z,6.60
2018-12-04T07:55:10.243Z,6.70
2018-12-04T07:57:41.030Z,6.80
2018-12-04T08:00:11.835Z,6.70
2018-12-04T08:02:42.466Z,6.60
2018-12-04T08:05:11.199Z,6.60
2018-12-04T08:07:39.840Z,6.40
2018-12-04T08:10:10.555Z,6.30
2018-12-04T08:15:19.769Z,6.20
2018-12-04T08:17:50.810Z,6.20
2018-12-04T08:20:27.957Z,6.20
2018-12-04T08:22:58.983Z,6.20
2018-12-04T08:25:32.550Z,6.20
2018-12-04T08:28:03.557Z,6.20
2018-12-04T08:30:32.147Z,6.20
2018-12-04T08:33:00.793Z,6.30
2018-12-04T08:35:31.433Z,6.40
2018-12-04T08:38:02.284Z,6.50
2018-12-04T08:40:31.039Z,6.50
2018-12-04T08:43:01.810Z,6.50
2018-12-04T08:45:32.491Z,6.50
2018-12-04T08:48:01.291Z,6.50
2018-12-04T08:50:31.922Z,6.40
2018-12-04T08:53:05.443Z,6.50
2018-12-04T08:55:36.492Z,6.60
2018-12-04T08:58:07.237Z,6.70
2018-12-04T09:00:36.259Z,6.80
2018-12-04T09:03:07.001Z,7.00
2018-12-04T09:05:37.823Z,7.10
2018-12-04T09:08:13.314Z,7.20
2018-12-04T09:10:42.452Z,7.20
2018-12-04T09:13:11.112Z,7.30
2018-12-04T09:15:39.869Z,7.40
2018-12-04T09:20:39.149Z,7.60
2018-12-04T09:23:09.647Z,7.80
2018-12-04T09:25:43.117Z,8.00
2018-12-04T09:28:16.953Z,7.90
2018-12-04T09:30:47.798Z,7.70
2018-12-04T09:33:18.515Z,7.70
2018-12-04T09:38:58.861Z,7.60
2018-12-04T09:41:30.021Z,7.60
2018-12-04T09:44:00.379Z,7.90
2018-12-04T09:46:31.071Z,8.00
2018-12-04T09:49:01.711Z,8.10
2018-12-04T09:51:30.283Z,8.00
2018-12-04T09:54:05.715Z,8.00
2018-12-04T09:56:34.707Z,8.00
2018-12-04T09:59:08.206Z,8.00
2018-12-04T10:01:39.107Z,8.00
2018-12-04T10:04:09.800Z,8.30
2018-12-04T10:06:43.227Z,8.30
2018-12-04T10:09:12.209Z,8.40
2018-12-04T10:11:42.822Z,8.30
2018-12-04T10:14:13.727Z,8.00
2018-12-04T10:16:42.361Z,8.20
2018-12-04T10:21:45.797Z,8.20
2018-12-04T10:24:23.225Z,7.80
2018-12-04T10:26:56.328Z,7.30
2018-12-04T10:29:33.817Z,6.90
2018-12-04T10:32:02.951Z,6.70
2018-12-04T10:34:31.620Z,6.70
2018-12-04T10:37:04.963Z,6.70
2018-12-04T10:39:35.805Z,6.80
2018-12-04T10:42:13.074Z,6.80
2018-12-04T10:44:44.009Z,7.10
2018-12-04T10:47:12.787Z,7.70
2018-12-04T10:49:43.557Z,8.30
2018-12-04T10:52:17.025Z,8.40
2018-12-04T10:54:45.934Z,8.30
2018-12-04T10:57:19.262Z,8.40
2018-12-04T10:59:47.948Z,8.90
2018-12-04T11:02:23.292Z,10.20
2018-12-04T11:04:54.120Z,10.70
2018-12-04T11:07:25.168Z,10.70
2018-12-04T11:09:56.024Z,11.30
2018-12-04T11:12:26.808Z,11.20
2018-12-04T11:14:57.863Z,10.70
2018-12-04T11:17:31.679Z,9.90
2018-12-04T11:22:33.779Z,8.40
2018-12-04T11:25:03.978Z,8.30
2018-12-04T11:27:37.442Z,7.90
2018-12-04T11:30:11.356Z,7.80
2018-12-04T11:32:40.264Z,7.50
2018-12-04T11:35:11.179Z,7.30
2018-12-04T11:37:42.131Z,7.20
2018-12-04T11:40:13.644Z,6.90
2018-12-04T11:42:42.477Z,7.10
2018-12-04T11:45:13.104Z,7.90
2018-12-04T11:47:45.606Z,9.10
2018-12-04T11:50:18.009Z,10.10
2018-12-04T11:52:48.515Z,10.20
2018-12-04T11:55:19.411Z,9.30
2018-12-04T11:57:50.175Z,8.40
2018-12-04T12:00:21.340Z,7.80
2018-12-04T12:02:51.944Z,7.50
2018-12-04T12:05:22.989Z,7.20
2018-12-04T12:07:52.335Z,7.10
2018-12-04T12:10:26.257Z,7.00
2018-12-04T12:12:59.799Z,7.10
2018-12-04T12:15:30.772Z,7.70
2018-12-04T12:18:04.379Z,8.60
2018-12-04T12:20:35.287Z,9.50
2018-12-04T12:23:06.054Z,10.20
2018-12-04T12:25:37.047Z,10.90
2018-12-04T12:28:05.936Z,11.30
2018-12-04T12:30:34.686Z,11.20
2018-12-04T12:33:10.148Z,11.60
2018-12-04T12:35:41.304Z,11.30
2018-12-04T12:38:11.999Z,11.30
2018-12-04T12:40:42.878Z,11.10
2018-12-04T12:43:11.735Z,10.70
2018-12-04T12:45:42.698Z,10.30
2018-12-04T12:48:13.580Z,9.70
2018-12-04T12:50:44.352Z,9.50
2018-12-04T12:53:17.995Z,8.90
2018-12-04T12:55:51.750Z,8.60
2018-12-04T12:58:22.694Z,8.40
2018-12-04T13:00:56.331Z,8.40
2018-12-04T13:03:27.484Z,8.30
2018-12-04T13:05:56.504Z,8.30
2018-12-04T13:08:31.673Z,8.10
2018-12-04T13:11:05.046Z,8.00
2018-12-04T13:13:36.892Z,8.10
2018-12-04T13:16:07.298Z,8.10
2018-12-04T13:18:42.226Z,8.20
2018-12-04T13:21:23.570Z,8.00
2018-12-04T13:23:57.370Z,8.10
2018-12-04T13:26:27.885Z,8.00
2018-12-04T13:28:58.862Z,7.90
2018-12-04T13:31:30.455Z,7.70
2018-12-04T13:34:01.265Z,7.70
2018-12-04T13:36:32.142Z,7.80
2018-12-04T13:39:06.609Z,7.90
2018-12-04T13:41:35.177Z,8.20
2018-12-04T13:44:05.911Z,8.30
2018-12-04T13:46:36.859Z,8.50
2018-12-04T13:49:12.658Z,8.70
2018-12-04T13:51:43.764Z,8.90
2018-12-04T13:54:14.625Z,8.90
2018-12-04T13:56:45.493Z,8.90
2018-12-04T13:59:16.351Z,8.90
2018-12-04T14:01:45.387Z,8.70
2018-12-04T14:04:17.228Z,8.70
2018-12-04T14:06:48.926Z,8.60
2018-12-04T14:09:19.857Z,8.30
2018-12-04T14:11:50.499Z,8.20
2018-12-04T14:14:24.019Z,8.10
2018-12-04T14:16:54.803Z,8.10
2018-12-04T14:19:35.851Z,8.20
2018-12-04T14:22:06.255Z,8.00
2018-12-04T14:24:36.918Z,8.00
2018-12-04T14:27:10.803Z,8.00
2018-12-04T14:29:41.667Z,7.80
2018-12-04T14:32:12.437Z,7.60
2018-12-04T14:34:43.080Z,7.40
2018-12-04T14:37:18.593Z,7.20
2018-12-04T14:39:49.449Z,6.90
2018-12-04T14:42:20.880Z,6.70
2018-12-04T14:44:51.959Z,6.40
2018-12-04T14:47:25.666Z,6.20
2018-12-04T14:49:56.583Z,6.10
2018-12-04T14:52:32.227Z,6.00
2018-12-04T14:55:03.083Z,5.90
2018-12-04T14:57:37.190Z,5.70
2018-12-04T15:00:11.234Z,5.60
2018-12-04T15:02:44.736Z,5.50
2018-12-04T15:05:18.456Z,5.40
2018-12-04T15:07:52.242Z,5.30
2018-12-04T15:10:23.299Z,5.20
2018-12-04T15:12:54.214Z,5.00
2018-12-04T15:15:25.162Z,5.00
2018-12-04T15:20:48.397Z,4.80
2018-12-04T15:26:14.324Z,4.60
2018-12-04T15:34:33.886Z,4.30
2018-12-04T15:43:09.805Z,4.00
2018-12-04T15:45:54.239Z,3.90
2018-12-04T15:48:32.114Z,3.90
2018-12-04T15:56:57.989Z,3.70
2018-12-04T16:02:28.201Z,3.50
2018-12-04T16:04:58.966Z,3.60
2018-12-04T16:10:31.766Z,3.50
2018-12-04T16:16:08.699Z,3.30
2018-12-04T16:18:46.360Z,3.30
2018-12-04T16:24:10.332Z,3.10
2018-12-04T16:26:41.275Z,3.00
2018-12-04T16:29:27.784Z,2.90
2018-12-04T16:32:01.325Z,2.80
2018-12-04T16:34:32.000Z,2.80
2018-12-04T16:36:59.446Z,2.80
2018-12-04T16:39:33.176Z,2.90
2018-12-04T16:42:10.786Z,2.80
2018-12-04T16:44:44.328Z,2.80
2018-12-04T16:47:15.392Z,2.70
2018-12-04T16:49:56.672Z,2.70
2018-12-04T16:52:27.943Z,2.70
2018-12-04T16:55:01.493Z,2.70
2018-12-04T16:57:32.402Z,2.70
2018-12-04T17:00:13.070Z,2.70
2018-12-04T17:02:53.688Z,2.70
2018-12-04T17:05:31.717Z,2.70
2018-12-04T17:08:18.694Z,2.70
2018-12-04T17:10:55.915Z,2.70
2018-12-04T17:13:36.279Z,2.70
2018-12-04T17:16:07.685Z,2.70
2018-12-04T17:18:38.491Z,2.70
2018-12-04T17:21:18.821Z,2.80
2018-12-04T17:23:59.573Z,2.80
2018-12-04T17:26:29.946Z,2.80
2018-12-04T17:29:03.626Z,2.60
2018-12-04T17:31:43.768Z,2.60
2018-12-04T17:34:16.942Z,2.60
2018-12-04T17:36:50.590Z,2.50
2018-12-04T17:39:24.309Z,2.60
2018-12-04T17:42:04.763Z,2.60
2018-12-04T17:44:39.990Z,2.50
2018-12-04T17:47:04.999Z,2.40
2018-12-04T17:49:38.610Z,2.30
2018-12-04T17:52:13.658Z,2.30
2018-12-04T17:54:47.217Z,2.40
2018-12-04T17:57:24.881Z,2.40
2018-12-04T17:59:56.081Z,2.30
2018-12-04T18:02:29.468Z,2.30
2018-12-04T18:05:07.195Z,2.30
2018-12-04T18:07:38.183Z,2.40
2018-12-04T18:10:08.821Z,2.30
2018-12-04T18:12:46.239Z,2.30
2018-12-04T18:15:21.383Z,2.30
2018-12-04T18:17:54.985Z,2.10
2018-12-04T18:20:35.504Z,2.10
2018-12-04T18:23:04.762Z,2.00
2018-12-04T18:25:33.452Z,2.10
2018-12-04T18:28:02.315Z,2.10
2018-12-04T18:30:42.498Z,2.10
2018-12-04T18:35:45.339Z,2.10
2018-12-04T18:38:16.426Z,2.20
2018-12-04T18:40:50.161Z,2.30
2018-12-04T18:43:30.701Z,2.30
2018-12-04T18:46:03.867Z,2.30
2018-12-04T18:48:37.688Z,2.30
2018-12-04T18:51:11.521Z,2.20
2018-12-04T18:53:47.192Z,2.20
2018-12-04T18:56:18.508Z,2.20
2018-12-04T18:58:58.755Z,2.20
2018-12-04T19:01:41.551Z,2.30
2018-12-04T19:04:22.382Z,2.30
2018-12-04T19:06:51.545Z,2.30
2018-12-04T19:09:26.102Z,2.30
2018-12-04T19:11:56.936Z,2.30
2018-12-04T19:14:27.515Z,2.30
2018-12-04T19:16:58.229Z,2.30
2018-12-04T19:19:32.746Z,2.30
2018-12-04T19:22:03.935Z,2.30
2018-12-04T19:24:32.597Z,2.30
2018-12-04T19:27:07.037Z,2.30
2018-12-04T19:29:38.084Z,2.20
2018-12-04T19:32:18.062Z,2.20
2018-12-04T19:34:58.823Z,2.10
2018-12-04T19:37:32.049Z,2.10
2018-12-04T19:40:03.743Z,2.10
2018-12-04T19:42:34.642Z,2.00
2018-12-04T19:45:10.132Z,2.00
2018-12-04T19:47:39.419Z,2.00
2018-12-04T19:50:08.234Z,2.00
2018-12-04T19:52:36.994Z,1.90
2018-12-04T19:55:10.561Z,2.00
2018-12-04T19:57:44.206Z,1.90
2018-12-04T20:00:13.253Z,1.80
2018-12-04T20:02:53.339Z,1.80
2018-12-04T20:05:24.659Z,1.80
2018-12-04T20:08:08.130Z,1.80
2018-12-04T20:10:37.110Z,1.80
2018-12-04T20:13:17.419Z,1.90
2018-12-04T20:15:51.422Z,1.80
2018-12-04T20:18:25.221Z,1.80
2018-12-04T20:21:05.771Z,1.80
2018-12-04T20:23:41.392Z,1.70
2018-12-04T20:26:12.394Z,1.80
2018-12-04T20:28:45.770Z,1.80
2018-12-04T20:31:16.929Z,1.70
2018-12-04T20:33:48.113Z,1.70
2018-12-04T20:36:21.238Z,1.60
2018-12-04T20:38:52.517Z,1.60
2018-12-04T20:41:26.586Z,1.60
2018-12-04T20:44:00.230Z,1.50
2018-12-04T20:46:29.121Z,1.60
2018-12-04T20:48:57.704Z,1.60
2018-12-04T20:51:35.542Z,1.50
2018-12-04T20:54:06.083Z,1.50
2018-12-04T20:56:34.931Z,1.50
2018-12-04T20:59:05.738Z,1.50
2018-12-04T21:01:34.629Z,1.40
2018-12-04T21:04:14.554Z,1.50
2018-12-04T21:06:43.848Z,1.50
2018-12-04T21:09:17.685Z,1.40
2018-12-04T21:11:53.595Z,1.30
2018-12-04T21:14:26.942Z,1.40
2018-12-04T21:17:00.678Z,1.50
2018-12-04T21:19:34.783Z,1.40
2018-12-04T21:22:14.898Z,1.30
2018-12-04T21:24:56.406Z,1.30
2018-12-04T21:27:35.221Z,1.40
2018-12-04T21:30:19.185Z,1.30
2018-12-04T21:33:05.567Z,1.40
2018-12-04T21:35:42.658Z,1.40
2018-12-04T21:38:28.512Z,1.40
2018-12-04T21:41:10.253Z,1.30
2018-12-04T21:43:46.709Z,1.30
2018-12-04T21:49:32.417Z,1.20
2018-12-04T21:52:08.238Z,1.10
2018-12-04T21:54:42.064Z,1.00
2018-12-04T21:57:15.914Z,1.10
2018-12-04T21:59:53.620Z,1.20
2018-12-04T22:02:24.712Z,1.10
2018-12-04T22:04:53.685Z,1.10
2018-12-04T22:07:24.220Z,1.10
2018-12-04T22:09:54.913Z,1.10
2018-12-04T22:12:28.621Z,1.20
2018-12-04T22:15:02.370Z,1.10
2018-12-04T22:17:33.406Z,1.10
2018-12-04T22:20:07.091Z,1.00
2018-12-04T22:22:40.798Z,1.00
2018-12-04T22:25:11.759Z,1.00
2018-12-04T22:27:42.441Z,0.90
2018-12-04T22:30:22.602Z,1.00
2018-12-04T22:32:53.841Z,1.00
2018-12-04T22:35:24.524Z,1.00
2018-12-04T22:38:04.596Z,0.90
2018-12-04T22:40:35.034Z,0.90
2018-12-04T22:43:03.791Z,0.90
2018-12-04T22:45:32.697Z,0.80
2018-12-04T22:48:06.328Z,0.80
2018-12-04T22:50:44.023Z,0.80
2018-12-04T22:53:14.986Z,0.80
2018-12-04T22:55:48.573Z,0.70
2018-12-04T22:58:26.083Z,0.80
2018-12-04T23:00:59.823Z,0.80
2018-12-04T23:03:33.638Z,0.80
2018-12-04T23:06:02.704Z,0.80
2018-12-04T23:08:38.223Z,0.80
2018-12-04T23:11:12.107Z,0.90
2018-12-04T23:13:53.473Z,0.80
2018-12-04T23:16:22.757Z,0.70
2018-12-04T23:18:53.491Z,0.80
2018-12-04T23:21:24.159Z,0.80
2018-12-04T23:23:52.847Z,0.80
2018-12-04T23:26:24.078Z,0.80
2018-12-04T23:28:54.766Z,0.80
2018-12-04T23:31:25.467Z,0.80
2018-12-04T23:33:56.247Z,0.90
2018-12-04T23:36:33.601Z,0.80
2018-12-04T23:39:02.452Z,0.80
2018-12-04T23:41:39.923Z,0.90
2018-12-04T23:44:13.709Z,0.90
2018-12-04T23:46:44.759Z,0.80
2018-12-04T23:49:18.184Z,0.80
2018-12-04T23:51:58.636Z,0.80
2018-12-04T23:54:27.886Z,0.80
2018-12-04T23:57:01.327Z,0.80
2018-12-04T23:59:32.215Z,0.80
